Time;durP1;ratioP1;P1;durP2;ratioP2;P2;SDS_P1;SDS_P2;PMS_P1;PMS_P2;Temp;Humidity;BMP_temperature;BMP_pressure;BME280_temperature;BME280_humidity;BME280_pressure;Samples;Min_cycle;Max_cycle;Signal;HPM_P1;HPM_P2
2023/11/10 00:01:51;;;;;;;6.75;1.70;;;8.30;99.90;;;;;;4968887;28;20031;-84
2023/11/10 00:04:19;;;;;;;3.58;1.73;;;8.30;99.90;;;;;;4977040;28;20038;-86
2023/11/10 00:06:46;;;;;;;3.15;2.45;;;8.30;99.90;;;;;;4977472;28;20097;-83
2023/11/10 00:09:14;;;;;;;3.33;1.70;;;8.40;99.90;;;;;;4977270;28;20027;-86
2023/11/10 00:11:41;;;;;;;3.15;1.73;;;8.40;99.90;;;;;;4976246;28;20039;-86
2023/11/10 00:14:07;;;;;;;4.65;2.50;;;8.80;99.90;;;;;;4977242;28;20372;-86
2023/11/10 00:16:32;;;;;;;6.50;2.75;;;8.40;99.90;;;;;;4976863;28;20106;-84
2023/11/10 00:18:58;;;;;;;1.88;1.50;;;8.40;99.90;;;;;;4975906;28;20430;-85
2023/11/10 00:21:24;;;;;;;3.75;1.45;;;8.40;99.90;;;;;;4963636;28;20063;-86
2023/11/10 00:23:52;;;;;;;4.00;1.60;;;8.40;99.90;;;;;;4959008;28;20028;-87
2023/11/10 00:26:24;;;;;;;3.85;1.63;;;8.40;99.90;;;;;;4964718;28;20046;-87
2023/11/10 00:28:51;;;;;;;4.38;1.85;;;8.50;99.90;;;;;;4957892;29;20471;-84
2023/11/10 00:31:20;;;;;;;2.80;1.98;;;8.40;99.90;;;;;;4967964;28;20050;-86
2023/11/10 00:33:52;;;;;;;2.50;1.70;;;8.40;99.90;;;;;;4975525;28;20101;-86
2023/11/10 00:36:18;;;;;;;3.47;1.98;;;8.40;99.90;;;;;;4976790;28;20030;-87
2023/11/10 00:38:48;;;;;;;6.18;2.08;;;8.50;99.90;;;;;;4965213;28;20117;-86
2023/11/10 00:41:14;;;;;;;2.30;1.98;;;8.50;99.90;;;;;;4957986;28;20051;-85
2023/11/10 00:43:40;;;;;;;3.10;2.05;;;8.50;99.90;;;;;;4963800;28;20483;-85
2023/11/10 00:46:06;;;;;;;3.72;1.67;;;8.50;99.90;;;;;;4976180;28;20077;-84
2023/11/10 00:48:33;;;;;;;2.35;1.55;;;8.50;99.90;;;;;;4976622;28;20029;-84
2023/11/10 00:50:59;;;;;;;4.43;1.60;;;8.50;99.90;;;;;;4975723;28;20026;-85
2023/11/10 00:53:26;;;;;;;3.58;1.90;;;8.50;99.90;;;;;;4967144;28;20027;-86
2023/11/10 00:55:53;;;;;;;3.35;1.63;;;8.50;99.90;;;;;;4957214;28;20109;-85
2023/11/10 00:58:19;;;;;;;3.22;1.63;;;8.50;99.90;;;;;;4955928;28;20066;-84
2023/11/10 01:00:45;;;;;;;4.05;1.65;;;8.50;99.90;;;;;;4957064;28;20035;-84
2023/11/10 01:03:11;;;;;;;3.53;1.77;;;8.50;99.90;;;;;;4963328;28;20475;-86
2023/11/10 01:05:37;;;;;;;3.67;1.67;;;8.50;99.90;;;;;;4966826;28;20037;-85
2023/11/10 01:08:03;;;;;;;4.20;1.65;;;8.50;99.90;;;;;;4966531;28;20055;-85
2023/11/10 01:10:28;;;;;;;4.65;1.33;;;8.50;99.90;;;;;;4964387;28;20030;-84
2023/11/10 01:12:54;;;;;;;7.22;1.90;;;9.90;99.90;;;;;;4958857;28;20023;-86
2023/11/10 01:15:20;;;;;;;4.93;1.63;;;8.40;99.90;;;;;;4965503;28;20040;-86
2023/11/10 01:17:46;;;;;;;2.00;1.55;;;8.50;99.90;;;;;;4957311;28;20030;-85
2023/11/10 01:20:12;;;;;;;7.25;1.55;;;9.50;99.90;;;;;;4960752;28;20027;-85
2023/11/10 01:22:40;;;;;;;4.00;1.48;;;8.50;99.90;;;;;;4963569;28;20054;-85
2023/11/10 01:25:07;;;;;;;2.72;1.38;;;8.50;99.90;;;;;;4966524;28;20383;-83
2023/11/10 01:27:33;;;;;;;3.63;1.65;;;8.50;99.90;;;;;;4962160;28;20031;-84
2023/11/10 01:29:59;;;;;;;2.47;1.80;;;8.50;99.90;;;;;;4963407;28;20085;-85
2023/11/10 01:32:25;;;;;;;1.60;1.35;;;8.50;99.90;;;;;;4965217;28;20506;-84
2023/11/10 01:34:50;;;;;;;4.18;1.70;;;8.50;99.90;;;;;;4953301;28;20035;-85
2023/11/10 01:37:16;;;;;;;5.90;1.40;;;8.50;99.90;;;;;;4960201;28;20472;-84
2023/11/10 01:39:41;;;;;;;2.67;1.85;;;8.40;99.90;;;;;;4961040;28;20130;-84
2023/11/10 01:42:08;;;;;;;3.20;1.63;;;8.40;99.90;;;;;;4961105;28;20054;-85
2023/11/10 01:44:35;;;;;;;5.30;1.60;;;8.40;99.90;;;;;;4964796;28;20483;-85
2023/11/10 01:47:03;;;;;;;2.47;1.25;;;8.40;99.90;;;;;;4957973;28;20480;-85
2023/11/10 01:49:30;;;;;;;2.97;1.42;;;8.40;99.90;;;;;;4960068;28;20369;-85
2023/11/10 01:51:55;;;;;;;3.58;1.65;;;8.30;99.90;;;;;;4955982;29;20023;-84
2023/11/10 01:54:24;;;;;;;3.40;1.98;;;8.30;99.90;;;;;;4974292;28;20386;-85
2023/11/10 01:56:52;;;;;;;2.55;1.65;;;8.30;99.90;;;;;;4974622;28;20051;-85
2023/11/10 01:59:19;;;;;;;3.88;1.27;;;8.30;99.90;;;;;;4965092;28;20027;-85
2023/11/10 02:01:45;;;;;;;3.03;1.45;;;8.70;99.90;;;;;;4971622;28;20066;-84
2023/11/10 02:04:12;;;;;;;3.60;1.40;;;8.30;99.90;;;;;;4973901;28;20062;-86
2023/11/10 02:06:41;;;;;;;4.45;1.10;;;8.30;99.90;;;;;;4973395;28;20170;-85
2023/11/10 02:09:08;;;;;;;6.95;1.70;;;8.30;99.90;;;;;;4973463;28;20033;-85
2023/11/10 02:11:38;;;;;;;3.10;1.35;;;8.30;99.90;;;;;;4967021;28;20118;-86
2023/11/10 02:14:08;;;;;;;3.78;1.48;;;8.30;99.90;;;;;;4968943;28;20038;-85
2023/11/10 02:16:35;;;;;;;5.47;1.35;;;8.30;99.90;;;;;;4958309;28;20027;-85
2023/11/10 02:19:00;;;;;;;4.18;1.67;;;8.30;99.90;;;;;;4954591;28;20023;-86
2023/11/10 02:21:26;;;;;;;3.83;1.95;;;8.30;99.90;;;;;;4957728;28;20158;-85
2023/11/10 02:23:55;;;;;;;3.92;1.52;;;8.30;99.90;;;;;;4964818;28;20023;-85
2023/11/10 02:26:21;;;;;;;3.65;1.88;;;8.30;99.90;;;;;;4962568;28;20075;-86
2023/11/10 02:28:46;;;;;;;5.70;2.22;;;8.30;99.90;;;;;;4955481;28;20051;-87
2023/11/10 02:31:12;;;;;;;3.97;1.52;;;8.30;99.90;;;;;;4955694;28;20023;-87
2023/11/10 02:33:39;;;;;;;2.15;1.13;;;8.30;99.90;;;;;;4954078;28;20023;-87
2023/11/10 02:36:07;;;;;;;5.38;2.05;;;8.40;99.90;;;;;;4956503;28;20031;-86
2023/11/10 02:38:33;;;;;;;9.15;1.63;;;8.40;99.90;;;;;;4958691;28;20086;-87
2023/11/10 02:40:59;;;;;;;5.35;1.80;;;8.40;99.90;;;;;;4955395;28;20027;-86
2023/11/10 02:43:25;;;;;;;2.83;1.33;;;8.30;99.90;;;;;;4955066;28;20050;-86
2023/11/10 02:45:50;;;;;;;3.78;1.65;;;8.30;99.90;;;;;;4954514;28;20039;-85
2023/11/10 02:48:16;;;;;;;6.00;1.60;;;8.30;99.90;;;;;;4955308;28;20118;-85
2023/11/10 02:50:43;;;;;;;2.63;1.55;;;8.30;99.90;;;;;;4965418;28;20062;-85
2023/11/10 02:53:09;;;;;;;7.93;2.50;;;8.30;99.90;;;;;;4957560;28;20034;-84
2023/11/10 02:55:34;;;;;;;3.60;1.80;;;8.30;99.90;;;;;;4968817;28;20028;-85
2023/11/10 02:58:00;;;;;;;3.85;1.80;;;8.30;99.90;;;;;;4956814;28;20039;-85
2023/11/10 03:00:25;;;;;;;4.65;1.70;;;8.30;99.90;;;;;;4961865;28;20031;-85
2023/11/10 03:02:51;;;;;;;5.78;1.98;;;8.30;99.90;;;;;;4957275;28;20031;-85
2023/11/10 03:05:17;;;;;;;5.40;1.77;;;8.70;99.90;;;;;;4963074;28;20046;-84
2023/11/10 03:07:42;;;;;;;2.75;2.10;;;8.30;99.90;;;;;;4952915;28;20035;-84
2023/11/10 03:10:08;;;;;;;3.85;1.65;;;8.30;99.90;;;;;;4958505;29;20027;-84
2023/11/10 03:12:35;;;;;;;1.85;1.63;;;8.30;99.90;;;;;;4968657;28;20086;-85
2023/11/10 03:15:01;;;;;;;9.63;2.05;;;8.30;99.90;;;;;;4957369;28;20027;-85
2023/11/10 03:17:30;;;;;;;3.58;1.67;;;8.20;99.90;;;;;;4954045;28;20030;-85
2023/11/10 03:19:58;;;;;;;6.32;2.13;;;8.20;99.90;;;;;;4954510;28;20047;-86
2023/11/10 03:22:24;;;;;;;3.65;1.50;;;8.20;99.90;;;;;;4955736;28;20023;-87
2023/11/10 03:24:50;;;;;;;5.03;2.13;;;8.30;99.90;;;;;;4958635;28;20476;-85
2023/11/10 03:27:18;;;;;;;9.30;2.10;;;8.20;99.90;;;;;;4953346;28;20070;-86
2023/11/10 03:29:44;;;;;;;3.85;1.80;;;8.20;99.90;;;;;;4952208;29;20106;-84
2023/11/10 03:32:10;;;;;;;5.28;1.77;;;8.20;99.90;;;;;;4953497;28;20511;-85
2023/11/10 03:34:42;;;;;;;6.18;1.98;;;8.20;99.90;;;;;;4956964;28;20031;-85
2023/11/10 03:37:09;;;;;;;5.00;1.60;;;8.20;99.90;;;;;;4963817;28;20498;-85
2023/11/10 03:39:35;;;;;;;4.93;1.60;;;8.20;99.90;;;;;;4972127;28;20419;-85
2023/11/10 03:42:01;;;;;;;3.05;1.85;;;8.20;99.90;;;;;;4973491;28;20101;-85
2023/11/10 03:44:27;;;;;;;6.03;1.63;;;8.20;99.90;;;;;;4970086;28;20023;-85
2023/11/10 03:46:53;;;;;;;4.13;1.55;;;8.20;99.90;;;;;;4963020;28;20042;-85
2023/11/10 03:49:18;;;;;;;2.60;1.50;;;8.20;99.90;;;;;;4953733;28;20416;-86
2023/11/10 03:51:44;;;;;;;6.00;1.48;;;8.20;99.90;;;;;;4953690;28;20038;-85
2023/11/10 03:54:12;;;;;;;2.67;1.48;;;8.20;99.90;;;;;;4954210;28;20058;-85
2023/11/10 03:56:37;;;;;;;4.38;1.83;;;8.30;99.90;;;;;;4961336;28;20035;-85
2023/11/10 03:59:04;;;;;;;5.03;2.20;;;8.30;99.90;;;;;;4958498;28;20031;-84
2023/11/10 04:01:31;;;;;;;6.53;1.95;;;8.20;99.90;;;;;;4954276;28;20543;-85
2023/11/10 04:03:58;;;;;;;4.85;1.90;;;8.20;99.90;;;;;;4954319;28;20062;-84
2023/11/10 04:06:24;;;;;;;6.03;1.50;;;8.30;99.90;;;;;;4957227;28;20039;-84
2023/11/10 04:08:49;;;;;;;4.15;1.92;;;8.20;99.90;;;;;;4963470;28;20077;-84
2023/11/10 04:11:15;;;;;;;9.35;1.60;;;8.20;99.90;;;;;;4966947;28;20034;-85
2023/11/10 04:13:40;;;;;;;4.95;2.05;;;8.20;99.90;;;;;;4973091;28;20026;-85
2023/11/10 04:16:14;;;;;;;4.70;1.90;;;8.20;99.90;;;;;;4973641;28;20479;-85
2023/11/10 04:18:40;;;;;;;6.18;1.77;;;8.20;99.90;;;;;;4964926;28;20787;-85
2023/11/10 04:21:06;;;;;;;5.32;1.85;;;8.20;99.90;;;;;;4957771;28;20114;-85
2023/11/10 04:23:31;;;;;;;5.32;1.83;;;8.20;99.90;;;;;;4953085;28;20027;-85
2023/11/10 04:25:57;;;;;;;7.43;2.15;;;8.20;99.90;;;;;;4953970;29;20148;-85
2023/11/10 04:28:24;;;;;;;8.07;2.35;;;8.10;99.90;;;;;;4959281;28;20058;-85
2023/11/10 04:30:49;;;;;;;8.18;2.00;;;8.10;99.90;;;;;;4959200;28;20077;-85
2023/11/10 04:33:15;;;;;;;4.88;2.10;;;8.10;99.90;;;;;;4954308;28;20467;-85
2023/11/10 04:35:41;;;;;;;3.58;1.73;;;8.10;99.90;;;;;;4953816;29;20034;-85
2023/11/10 04:38:09;;;;;;;6.32;1.60;;;8.10;99.90;;;;;;4957267;28;20062;-85
2023/11/10 04:40:35;;;;;;;6.68;1.83;;;8.10;99.90;;;;;;4963158;28;20051;-85
2023/11/10 04:43:00;;;;;;;7.13;1.90;;;8.10;99.90;;;;;;4955620;29;20059;-84
2023/11/10 04:45:26;;;;;;;9.43;2.28;;;8.10;99.90;;;;;;4954891;28;20039;-85
2023/11/10 04:47:53;;;;;;;7.15;1.60;;;8.00;99.90;;;;;;4956513;28;20016;-85
2023/11/10 04:50:19;;;;;;;7.15;2.00;;;8.00;99.90;;;;;;4956271;28;20023;-84
2023/11/10 04:52:44;;;;;;;8.63;1.75;;;8.00;99.90;;;;;;4965158;28;20042;-85
2023/11/10 04:55:11;;;;;;;4.18;1.55;;;8.10;99.90;;;;;;4972231;28;20106;-86
2023/11/10 04:57:37;;;;;;;2.47;1.45;;;8.10;99.90;;;;;;4958255;28;20116;-87
2023/11/10 05:00:06;;;;;;;8.63;1.83;;;8.00;99.90;;;;;;4980891;28;20033;-86
2023/11/10 05:02:32;;;;;;;8.85;2.33;;;8.10;99.90;;;;;;4965388;28;20038;-86
2023/11/10 05:05:00;;;;;;;3.13;1.58;;;8.00;99.90;;;;;;4961802;28;20491;-86
2023/11/10 05:07:26;;;;;;;7.35;1.98;;;8.00;99.90;;;;;;4960860;28;20086;-86
2023/11/10 05:09:52;;;;;;;2.53;1.60;;;8.00;99.90;;;;;;4976564;28;20061;-86
2023/11/10 05:12:18;;;;;;;2.75;1.35;;;8.00;99.90;;;;;;4976000;28;20019;-85
2023/11/10 05:14:44;;;;;;;3.38;1.25;;;8.00;99.90;;;;;;4965691;28;20045;-86
2023/11/10 05:17:10;;;;;;;7.35;1.40;;;8.00;99.90;;;;;;4959168;28;20451;-85
2023/11/10 05:19:36;;;;;;;3.35;1.42;;;8.00;99.90;;;;;;4957662;28;20035;-86
2023/11/10 05:22:01;;;;;;;2.85;1.25;;;8.00;99.90;;;;;;4956653;28;20035;-86
2023/11/10 05:24:27;;;;;;;2.92;1.60;;;8.00;99.90;;;;;;4964238;28;20035;-86
2023/11/10 05:26:53;;;;;;;5.07;1.60;;;8.00;99.90;;;;;;4974583;28;20535;-85
2023/11/10 05:29:18;;;;;;;4.18;1.40;;;8.00;99.90;;;;;;4961844;28;20054;-85
2023/11/10 05:31:45;;;;;;;5.95;1.73;;;8.00;99.90;;;;;;4974840;28;20349;-85
2023/11/10 05:34:12;;;;;;;6.25;1.63;;;8.00;99.90;;;;;;4974926;28;20031;-84
2023/11/10 05:36:37;;;;;;;5.65;1.55;;;8.00;99.90;;;;;;4975085;28;20432;-84
2023/11/10 05:39:04;;;;;;;3.03;0.98;;;8.00;99.90;;;;;;4972018;28;20026;-85
2023/11/10 05:41:32;;;;;;;4.05;1.60;;;8.00;99.90;;;;;;4963303;28;20022;-85
2023/11/10 05:43:58;;;;;;;8.68;1.30;;;8.00;99.90;;;;;;4974931;28;20035;-85
2023/11/10 05:46:24;;;;;;;3.42;1.33;;;8.00;99.90;;;;;;4975453;28;20390;-85
2023/11/10 05:48:49;;;;;;;5.78;1.20;;;8.10;99.90;;;;;;4974965;28;20102;-85
2023/11/10 05:51:15;;;;;;;3.78;1.60;;;8.10;99.90;;;;;;4975504;28;20383;-85
2023/11/10 05:53:41;;;;;;;8.07;2.05;;;8.00;99.90;;;;;;4966755;28;20035;-85
2023/11/10 05:56:07;;;;;;;4.40;1.30;;;8.10;99.90;;;;;;4961902;28;20064;-85
2023/11/10 05:58:33;;;;;;;8.32;1.73;;;8.10;99.90;;;;;;4955784;28;20061;-86
2023/11/10 06:00:59;;;;;;;8.30;1.58;;;8.10;99.90;;;;;;4956577;28;20031;-86
2023/11/10 06:03:27;;;;;;;2.92;1.65;;;8.10;99.90;;;;;;4955459;28;20028;-86
2023/11/10 06:05:55;;;;;;;9.05;2.22;;;8.10;99.90;;;;;;4963291;28;20154;-85
2023/11/10 06:08:22;;;;;;;6.85;1.30;;;8.10;99.90;;;;;;4972685;28;20027;-85
2023/11/10 06:10:52;;;;;;;3.90;1.98;;;8.10;99.90;;;;;;4975489;28;20094;-86
2023/11/10 06:13:21;;;;;;;8.18;2.38;;;8.20;99.90;;;;;;4975806;28;20106;-86
2023/11/10 06:15:47;;;;;;;5.05;1.48;;;8.10;99.90;;;;;;4967659;28;20034;-86
2023/11/10 06:18:13;;;;;;;6.55;1.63;;;8.20;99.90;;;;;;4958729;28;20046;-86
2023/11/10 06:20:38;;;;;;;6.30;1.70;;;8.10;99.90;;;;;;4955316;28;20054;-86
2023/11/10 06:23:04;;;;;;;2.92;1.13;;;8.10;99.90;;;;;;4958494;28;20499;-86
2023/11/10 06:25:29;;;;;;;7.00;1.80;;;8.10;99.90;;;;;;4963083;28;20043;-86
2023/11/10 06:27:55;;;;;;;6.15;1.90;;;8.10;99.90;;;;;;4959392;28;20053;-86
2023/11/10 06:30:21;;;;;;;5.72;1.67;;;8.10;99.90;;;;;;4964111;28;20031;-85
2023/11/10 06:32:46;;;;;;;8.52;2.25;;;8.10;99.90;;;;;;4955102;28;20027;-86
2023/11/10 06:35:12;;;;;;;5.50;1.60;;;8.10;99.90;;;;;;4971628;28;20452;-85
2023/11/10 06:37:39;;;;;;;13.98;2.33;;;9.30;99.90;;;;;;4967988;28;20639;-82
2023/11/10 06:40:05;;;;;;;2.50;1.45;;;8.10;99.90;;;;;;4964018;28;20054;-84
2023/11/10 06:42:34;;;;;;;9.55;1.70;;;8.10;99.90;;;;;;4965777;28;20034;-85
2023/11/10 06:45:03;;;;;;;3.88;1.45;;;9.10;99.90;;;;;;4972538;28;20419;-85
2023/11/10 06:47:29;;;;;;;9.30;1.50;;;8.10;99.90;;;;;;4973774;28;20587;-84
2023/11/10 06:49:55;;;;;;;4.20;1.80;;;8.10;99.90;;;;;;4969986;28;20129;-84
2023/11/10 06:52:24;;;;;;;6.18;1.60;;;8.10;99.90;;;;;;4968375;28;20188;-84
2023/11/10 06:54:49;;;;;;;4.40;1.48;;;8.10;99.90;;;;;;4972680;28;20034;-84
2023/11/10 06:57:18;;;;;;;3.38;1.08;;;8.10;99.90;;;;;;4972565;28;20038;-84
2023/11/10 06:59:44;;;;;;;3.13;1.30;;;8.10;99.90;;;;;;4972145;28;20066;-85
2023/11/10 07:02:12;;;;;;;6.05;1.60;;;8.10;99.90;;;;;;4972616;28;20018;-84
2023/11/10 07:04:38;;;;;;;7.50;1.85;;;8.10;99.90;;;;;;4973473;28;20019;-85
2023/11/10 07:07:05;;;;;;;5.03;1.55;;;8.10;99.90;;;;;;4972878;28;20026;-85
2023/11/10 07:09:30;;;;;;;3.40;1.40;;;8.10;99.90;;;;;;4973079;28;20031;-85
2023/11/10 07:11:56;;;;;;;5.10;1.58;;;8.10;99.90;;;;;;4973539;28;20065;-85
2023/11/10 07:14:22;;;;;;;6.10;1.52;;;8.10;99.90;;;;;;4969634;28;20034;-86
2023/11/10 07:16:49;;;;;;;7.15;2.30;;;8.10;99.90;;;;;;4972624;28;20110;-84
2023/11/10 07:19:14;;;;;;;8.57;2.25;;;8.10;99.90;;;;;;4972145;28;20027;-86
2023/11/10 07:21:40;;;;;;;5.07;1.90;;;8.10;99.90;;;;;;4972186;28;20036;-84
2023/11/10 07:24:06;;;;;;;4.07;1.65;;;8.20;99.90;;;;;;4971888;28;20134;-86
2023/11/10 07:26:32;;;;;;;5.35;1.77;;;8.20;99.90;;;;;;4972017;28;20066;-84
2023/11/10 07:29:02;;;;;;;8.73;2.35;;;8.20;99.90;;;;;;4972582;28;20485;-85
2023/11/10 07:31:28;;;;;;;5.25;1.42;;;8.20;99.90;;;;;;4972269;28;20039;-85
2023/11/10 07:33:55;;;;;;;6.93;2.50;;;8.20;99.90;;;;;;4972981;28;20031;-85
2023/11/10 07:36:21;;;;;;;6.97;2.15;;;8.20;99.90;;;;;;4966027;28;20042;-84
2023/11/10 07:38:47;;;;;;;5.57;2.17;;;8.20;99.90;;;;;;4966626;28;20032;-86
2023/11/10 07:41:12;;;;;;;7.75;2.40;;;8.20;99.90;;;;;;4961552;28;20045;-84
2023/11/10 07:43:38;;;;;;;8.80;2.47;;;8.20;99.90;;;;;;4972701;28;20117;-85
2023/11/10 07:46:04;;;;;;;7.90;2.92;;;8.20;99.90;;;;;;4973211;28;20085;-84
2023/11/10 07:48:31;;;;;;;6.25;1.80;;;8.20;99.90;;;;;;4970173;28;20030;-89
2023/11/10 07:50:57;;;;;;;9.15;2.50;;;8.10;99.90;;;;;;4961866;28;20035;-82
2023/11/10 07:53:26;;;;;;;5.38;2.58;;;8.20;99.90;;;;;;4972415;28;20026;-82
2023/11/10 07:55:52;;;;;;;7.53;2.53;;;8.20;99.90;;;;;;4964262;28;20069;-84
2023/11/10 07:58:17;;;;;;;7.90;2.90;;;8.20;99.90;;;;;;4953899;28;20464;-83
2023/11/10 08:00:43;;;;;;;5.35;2.50;;;8.20;99.90;;;;;;4959091;28;20046;-84
2023/11/10 08:03:08;;;;;;;5.93;2.28;;;8.20;99.90;;;;;;4962099;28;20463;-84
2023/11/10 08:05:34;;;;;;;5.75;2.53;;;8.20;99.90;;;;;;4972175;28;20395;-83
2023/11/10 08:08:02;;;;;;;5.68;2.15;;;8.20;99.90;;;;;;4959712;28;20460;-84
2023/11/10 08:10:30;;;;;;;8.52;2.38;;;8.30;99.90;;;;;;4971523;28;20080;-85
2023/11/10 08:12:55;;;;;;;7.10;2.88;;;8.30;99.90;;;;;;4973876;28;20073;-85
2023/11/10 08:15:21;;;;;;;5.57;2.28;;;8.30;99.90;;;;;;4975850;28;20498;-88
2023/11/10 08:17:47;;;;;;;6.45;2.50;;;8.40;99.90;;;;;;4975273;28;20023;-84
2023/11/10 08:20:24;;;;;;;8.95;2.97;;;8.40;99.90;;;;;;4978601;28;20475;-88
2023/11/10 08:22:52;;;;;;;3.83;1.63;;;8.40;99.90;;;;;;4972219;28;20027;-88
2023/11/10 08:25:18;;;;;;;6.93;2.58;;;8.40;99.90;;;;;;4971342;28;20510;-90
2023/11/10 08:27:46;;;;;;;5.32;2.25;;;9.80;99.90;;;;;;4976864;28;20065;-89
2023/11/10 08:30:12;;;;;;;7.82;2.42;;;9.60;99.90;;;;;;4979528;28;20042;-85
2023/11/10 08:32:39;;;;;;;8.10;3.22;;;8.40;99.90;;;;;;4959715;28;20041;-85
2023/11/10 08:35:06;;;;;;;6.28;2.25;;;8.50;99.90;;;;;;4961353;28;20035;-86
2023/11/10 08:37:31;;;;;;;8.50;2.38;;;8.50;99.90;;;;;;4974081;28;20475;-86
2023/11/10 08:39:57;;;;;;;9.35;2.40;;;8.60;99.90;;;;;;4975035;28;20093;-85
2023/11/10 08:42:23;;;;;;;5.03;2.08;;;8.50;99.90;;;;;;4970591;28;20561;-84
2023/11/10 08:44:49;;;;;;;8.18;2.60;;;8.50;99.90;;;;;;4974657;28;20043;-85
2023/11/10 08:47:16;;;;;;;5.75;2.33;;;8.50;99.90;;;;;;4971922;28;20031;-84
2023/11/10 08:49:45;;;;;;;11.60;3.00;;;8.50;99.90;;;;;;4967496;28;20069;-87
2023/11/10 08:52:12;;;;;;;10.73;3.05;;;8.50;99.90;;;;;;4961046;28;20459;-85
2023/11/10 08:54:37;;;;;;;6.70;3.60;;;8.50;99.90;;;;;;4970090;28;20034;-86
2023/11/10 08:57:03;;;;;;;7.30;3.63;;;9.30;99.90;;;;;;4972776;28;20039;-85
2023/11/10 08:59:30;;;;;;;6.63;3.40;;;8.60;99.90;;;;;;4970618;28;20514;-86
2023/11/10 09:01:56;;;;;;;10.77;3.13;;;8.60;99.90;;;;;;4970082;28;20034;-86
2023/11/10 09:04:22;;;;;;;11.00;3.10;;;8.60;99.90;;;;;;4973208;28;20035;-85
2023/11/10 09:06:48;;;;;;;14.75;3.03;;;8.60;99.90;;;;;;4969162;28;20035;-84
2023/11/10 09:09:14;;;;;;;6.90;3.15;;;8.60;99.90;;;;;;4974728;28;20054;-84
2023/11/10 09:11:39;;;;;;;8.40;3.03;;;8.60;99.90;;;;;;4973490;28;20035;-85
2023/11/10 09:14:05;;;;;;;7.88;2.65;;;8.60;99.90;;;;;;4969588;28;20031;-84
2023/11/10 09:16:30;;;;;;;9.13;2.97;;;8.60;99.90;;;;;;4974646;28;20101;-85
2023/11/10 09:18:56;;;;;;;5.03;2.38;;;8.60;99.90;;;;;;4974393;28;20034;-84
2023/11/10 09:21:21;;;;;;;9.35;2.70;;;8.60;99.90;;;;;;4969665;28;20030;-84
2023/11/10 09:23:47;;;;;;;7.70;2.95;;;8.60;99.90;;;;;;4970271;28;20106;-83
2023/11/10 09:26:13;;;;;;;10.63;2.42;;;8.60;99.90;;;;;;4968666;28;20489;-85
2023/11/10 09:28:38;;;;;;;7.93;2.17;;;8.60;99.90;;;;;;4967459;28;20023;-83
2023/11/10 09:31:04;;;;;;;5.07;1.80;;;8.60;99.90;;;;;;4972358;28;20537;-84
2023/11/10 09:33:29;;;;;;;4.07;1.52;;;8.60;99.90;;;;;;4967388;28;20486;-88
2023/11/10 09:35:55;;;;;;;4.63;1.88;;;8.60;99.90;;;;;;4962035;28;20066;-89
2023/11/10 09:38:21;;;;;;;7.57;2.25;;;10.10;99.90;;;;;;4970924;28;20042;-89
2023/11/10 09:40:47;;;;;;;2.72;1.58;;;8.60;99.90;;;;;;4972095;28;20027;-86
2023/11/10 09:43:14;;;;;;;5.18;2.08;;;8.60;99.90;;;;;;4960627;28;20039;-84
2023/11/10 09:45:47;;;;;;;4.97;2.30;;;8.60;99.90;;;;;;4959221;28;20442;-84
2023/11/10 09:48:13;;;;;;;8.90;2.05;;;8.60;99.90;;;;;;4970374;28;20431;-88
2023/11/10 09:50:40;;;;;;;7.32;2.35;;;8.60;99.90;;;;;;4958444;28;20557;-85
2023/11/10 09:53:06;;;;;;;6.35;1.80;;;8.60;99.90;;;;;;4961827;28;20449;-83
2023/11/10 09:55:33;;;;;;;4.28;1.95;;;8.60;99.90;;;;;;4955123;28;20036;-84
2023/11/10 09:58:00;;;;;;;7.63;1.92;;;9.10;99.90;;;;;;4970754;28;20046;-86
2023/11/10 10:00:26;;;;;;;3.75;2.08;;;8.60;99.90;;;;;;4970159;28;20531;-89
2023/11/10 10:02:52;;;;;;;6.80;2.05;;;8.70;99.90;;;;;;4972564;28;20031;-88
2023/11/10 10:05:17;;;;;;;6.68;2.95;;;9.40;99.90;;;;;;4970191;28;20069;-91
2023/11/10 10:07:47;;;;;;;3.97;2.47;;;8.80;99.90;;;;;;4966570;28;20027;-88
2023/11/10 10:10:13;;;;;;;6.63;2.00;;;8.60;99.90;;;;;;4972472;28;20054;-90
2023/11/10 10:12:39;;;;;;;5.00;2.10;;;8.70;99.90;;;;;;4975662;28;20616;-90
2023/11/10 10:15:05;;;;;;;6.30;2.22;;;8.60;99.90;;;;;;4977057;28;20031;-90
2023/11/10 10:17:32;;;;;;;8.00;2.20;;;8.60;99.90;;;;;;4973116;28;20506;-89
2023/11/10 10:20:24;;;;;;;4.97;1.98;;;8.60;99.90;;;;;;4977008;28;20070;-90
2023/11/10 10:22:50;;;;;;;5.60;1.92;;;9.40;99.90;;;;;;4971078;28;20031;-89
2023/11/10 10:25:19;;;;;;;3.75;1.98;;;8.70;99.90;;;;;;4961987;28;20042;-90
2023/11/10 10:27:46;;;;;;;3.88;1.73;;;8.70;99.90;;;;;;4965096;28;20031;-91
2023/11/10 10:30:12;;;;;;;5.15;1.95;;;8.70;99.90;;;;;;4955811;28;20046;-89
2023/11/10 10:32:38;;;;;;;7.63;2.38;;;8.70;99.90;;;;;;4958672;28;20467;-92
2023/11/10 10:35:04;;;;;;;6.32;1.80;;;8.70;99.90;;;;;;4957267;28;20030;-89
2023/11/10 10:37:32;;;;;;;4.30;2.10;;;8.70;99.90;;;;;;4958352;28;20436;-92
2023/11/10 10:40:00;;;;;;;5.18;2.13;;;8.80;99.90;;;;;;4957192;28;20023;-89
2023/11/10 10:42:34;;;;;;;5.43;2.13;;;8.70;99.90;;;;;;4955835;28;20034;-86
2023/11/10 10:45:03;;;;;;;5.25;1.98;;;8.70;99.90;;;;;;4955977;29;20104;-89
2023/11/10 10:47:32;;;;;;;4.45;1.85;;;8.70;99.90;;;;;;4955520;28;20102;-88
2023/11/10 10:49:59;;;;;;;11.73;2.22;;;8.70;99.90;;;;;;4955596;28;20499;-89
2023/11/10 10:52:27;;;;;;;8.95;2.63;;;8.70;99.90;;;;;;4955497;28;20031;-89
2023/11/10 10:54:54;;;;;;;6.30;2.00;;;8.70;99.90;;;;;;4955753;28;20027;-90
2023/11/10 10:57:22;;;;;;;5.00;1.80;;;8.80;99.90;;;;;;4968406;28;20051;-90
2023/11/10 10:59:49;;;;;;;4.88;2.38;;;8.80;99.90;;;;;;4975033;28;20035;-91
2023/11/10 11:02:17;;;;;;;7.00;1.90;;;8.80;99.90;;;;;;4957144;28;20086;-91
2023/11/10 11:04:53;;;;;;;5.75;1.75;;;8.90;99.90;;;;;;4958456;28;20035;-89
2023/11/10 11:07:49;;;;;;;5.65;1.65;;;8.90;99.90;;;;;;4974907;28;20106;-88
2023/11/10 11:10:41;;;;;;;8.77;1.90;;;9.00;99.90;;;;;;4970489;28;20479;-91
2023/11/10 11:13:50;;;;;;;6.15;1.83;;;9.00;99.90;;;;;;4971121;28;20026;-86
2023/11/10 11:16:27;;;;;;;4.18;1.83;;;9.10;99.90;;;;;;4965033;29;20082;-90
2023/11/10 11:19:04;;;;;;;4.13;2.10;;;9.10;99.90;;;;;;4978316;28;20038;-90
2023/11/10 11:21:31;;;;;;;3.97;1.50;;;9.20;99.90;;;;;;4966313;28;20062;-90
2023/11/10 11:23:59;;;;;;;2.60;1.30;;;9.20;99.90;;;;;;4955992;28;20035;-91
2023/11/10 11:26:24;;;;;;;4.10;1.88;;;9.10;99.90;;;;;;4955382;28;20043;-89
2023/11/10 11:29:03;;;;;;;4.03;1.65;;;9.20;99.90;;;;;;4971760;28;20026;-85
2023/11/10 11:31:42;;;;;;;5.50;1.33;;;9.20;99.90;;;;;;4973773;28;20375;-87
2023/11/10 11:34:11;;;;;;;5.20;1.30;;;9.10;99.90;;;;;;4970952;28;20117;-87
2023/11/10 11:36:36;;;;;;;3.80;1.42;;;9.20;99.90;;;;;;4973451;28;20051;-88
2023/11/10 11:39:02;;;;;;;3.83;1.40;;;9.20;99.90;;;;;;4973850;28;20062;-86
2023/11/10 11:41:30;;;;;;;3.67;1.20;;;9.20;99.90;;;;;;4964392;28;20035;-90
2023/11/10 11:43:57;;;;;;;4.00;1.67;;;9.60;99.90;;;;;;4957470;28;20107;-89
2023/11/10 11:46:32;;;;;;;6.18;1.90;;;9.10;99.90;;;;;;4967061;28;20491;-87
2023/11/10 11:48:58;;;;;;;5.18;1.83;;;9.20;99.90;;;;;;4971077;28;20158;-91
2023/11/10 11:51:25;;;;;;;3.40;1.55;;;9.10;99.90;;;;;;4958154;28;20062;-88
2023/11/10 11:53:50;;;;;;;2.92;1.20;;;9.10;99.90;;;;;;4962862;28;20117;-86
2023/11/10 11:56:16;;;;;;;7.05;1.73;;;9.00;99.90;;;;;;4963564;28;20445;-86
2023/11/10 11:58:42;;;;;;;6.03;1.33;;;9.00;99.90;;;;;;4972067;28;20463;-88
2023/11/10 12:01:09;;;;;;;5.07;1.33;;;9.00;99.90;;;;;;4960363;28;20035;-88
2023/11/10 12:03:35;;;;;;;4.85;1.83;;;9.00;99.90;;;;;;4958492;29;20034;-87
2023/11/10 12:06:03;;;;;;;6.97;1.90;;;8.90;99.90;;;;;;4972862;28;20046;-89
2023/11/10 12:08:30;;;;;;;6.68;2.25;;;8.90;99.90;;;;;;4977198;28;20034;-88
2023/11/10 12:10:56;;;;;;;4.60;1.90;;;8.90;99.90;;;;;;4985205;28;20054;-83
2023/11/10 12:13:22;;;;;;;8.07;2.40;;;8.90;99.90;;;;;;4973927;28;20042;-84
2023/11/10 12:15:48;;;;;;;4.43;1.42;;;9.50;99.90;;;;;;4961641;28;20023;-83
2023/11/10 12:18:17;;;;;;;2.67;1.20;;;8.90;99.90;;;;;;4965412;28;20090;-83
2023/11/10 12:20:43;;;;;;;2.20;1.42;;;8.90;99.90;;;;;;4957240;28;20038;-83
2023/11/10 12:23:08;;;;;;;5.22;1.60;;;8.80;99.90;;;;;;4969926;28;20058;-83
2023/11/10 12:25:37;;;;;;;5.30;1.85;;;8.80;99.90;;;;;;4976357;28;20098;-86
2023/11/10 12:28:03;;;;;;;3.88;1.52;;;9.60;99.90;;;;;;4970550;28;20027;-83
2023/11/10 12:30:29;;;;;;;7.03;1.95;;;8.80;99.90;;;;;;4976020;28;20030;-83
2023/11/10 12:32:55;;;;;;;5.80;2.50;;;8.80;99.90;;;;;;4974508;28;20066;-85
2023/11/10 12:35:23;;;;;;;7.22;2.20;;;8.80;99.90;;;;;;4976692;28;20495;-86
2023/11/10 12:37:53;;;;;;;5.70;2.20;;;8.80;99.90;;;;;;4976324;28;20030;-87
2023/11/10 12:40:18;;;;;;;7.90;2.45;;;8.80;99.90;;;;;;4976634;28;20038;-86
2023/11/10 12:42:47;;;;;;;3.60;1.98;;;8.80;99.90;;;;;;4970835;28;20392;-84
2023/11/10 12:45:14;;;;;;;4.97;2.35;;;8.80;99.90;;;;;;4975992;28;20125;-85
2023/11/10 12:47:50;;;;;;;8.48;2.97;;;8.80;99.90;;;;;;4973866;28;20049;-86
2023/11/10 12:50:24;;;;;;;7.22;3.28;;;8.80;99.90;;;;;;4961993;28;20371;-87
2023/11/10 12:52:51;;;;;;;9.40;2.83;;;8.80;99.90;;;;;;4964338;28;20037;-86
2023/11/10 12:55:20;;;;;;;6.60;2.45;;;8.80;99.90;;;;;;4957283;28;20042;-87
2023/11/10 12:57:48;;;;;;;8.90;2.67;;;8.80;99.90;;;;;;4962107;28;20047;-88